createdAt,value
2022-12-26T00:00:58.624Z,8.82
2022-12-26T00:03:26.126Z,9.43
2022-12-26T00:05:53.285Z,10.00
2022-12-26T00:08:20.186Z,11.52
2022-12-26T00:10:47.085Z,16.10
2022-12-26T00:13:38.570Z,10.73
2022-12-26T00:16:12.021Z,14.07
2022-12-26T00:18:39.792Z,11.25
2022-12-26T00:21:08.934Z,10.55
2022-12-26T00:23:36.962Z,12.52
2022-12-26T00:26:05.848Z,13.23
2022-12-26T00:28:33.105Z,10.15
2022-12-26T00:31:04.557Z,9.15
2022-12-26T00:33:31.630Z,11.70
2022-12-26T00:36:07.786Z,13.80
2022-12-26T00:38:37.485Z,11.40
2022-12-26T00:41:05.202Z,12.95
2022-12-26T00:43:32.788Z,12.80
2022-12-26T00:46:00.697Z,13.30
2022-12-26T00:48:28.119Z,14.00
2022-12-26T00:50:55.538Z,16.65
2022-12-26T00:53:23.473Z,17.23
2022-12-26T00:55:51.609Z,11.63
2022-12-26T00:58:19.765Z,12.70
2022-12-26T01:00:47.063Z,13.70
2022-12-26T01:03:14.592Z,12.38
2022-12-26T01:05:46.962Z,11.85
2022-12-26T01:08:21.755Z,10.10
2022-12-26T01:10:50.864Z,11.70
2022-12-26T01:13:17.799Z,9.20
2022-12-26T01:15:52.403Z,11.75
2022-12-26T01:18:20.217Z,10.18
2022-12-26T01:20:47.633Z,9.68
2022-12-26T01:23:14.863Z,8.60
2022-12-26T01:26:15.045Z,12.30
2022-12-26T01:28:28.931Z,11.35
2022-12-26T01:30:55.845Z,6.70
2022-12-26T01:33:22.757Z,7.03
2022-12-26T01:35:53.491Z,6.75
2022-12-26T01:38:21.698Z,8.23
2022-12-26T01:40:49.701Z,12.25
2022-12-26T01:43:17.301Z,9.07
2022-12-26T01:45:50.909Z,10.13
2022-12-26T01:48:20.549Z,11.63
2022-12-26T01:50:53.531Z,12.55
2022-12-26T01:53:22.547Z,10.40
2022-12-26T01:55:57.076Z,14.25
2022-12-26T01:58:30.813Z,10.60
2022-12-26T02:00:58.241Z,9.40
2022-12-26T02:03:43.720Z,8.52
2022-12-26T02:06:13.468Z,8.05
2022-12-26T02:08:40.738Z,8.95
2022-12-26T02:11:19.521Z,7.95
2022-12-26T02:13:46.668Z,9.68
2022-12-26T02:16:16.686Z,9.98
2022-12-26T02:18:44.262Z,15.50
2022-12-26T02:21:11.091Z,12.90
2022-12-26T02:23:49.880Z,11.48
2022-12-26T02:27:01.252Z,9.77
2022-12-26T02:29:46.996Z,7.70
2022-12-26T02:32:28.743Z,7.38
2022-12-26T02:35:37.563Z,9.82
2022-12-26T02:38:10.251Z,10.73
2022-12-26T02:40:52.896Z,11.10
2022-12-26T02:43:46.215Z,10.60
2022-12-26T02:46:56.751Z,7.60
2022-12-26T02:49:32.694Z,9.82
2022-12-26T02:52:30.370Z,8.63
2022-12-26T02:55:39.897Z,10.27
2022-12-26T02:58:41.649Z,9.50
2022-12-26T03:01:51.139Z,12.30
2022-12-26T03:04:41.271Z,9.73
2022-12-26T03:07:34.926Z,11.07
2022-12-26T03:10:25.137Z,9.20
2022-12-26T03:13:11.509Z,9.05
2022-12-26T03:16:07.397Z,9.05
2022-12-26T03:18:57.148Z,5.63
2022-12-26T03:21:31.714Z,9.82
2022-12-26T03:23:58.695Z,7.60
2022-12-26T03:26:41.232Z,8.52
2022-12-26T03:29:38.095Z,7.03
2022-12-26T03:32:08.817Z,6.68
2022-12-26T03:34:43.720Z,8.00
2022-12-26T03:37:49.195Z,10.23
2022-12-26T03:40:54.294Z,10.10
2022-12-26T03:44:17.464Z,10.35
2022-12-26T03:47:28.363Z,11.00
2022-12-26T03:50:18.644Z,9.63
2022-12-26T03:53:22.000Z,6.18
2022-12-26T03:56:14.277Z,8.23
2022-12-26T03:59:15.666Z,6.90
2022-12-26T04:02:04.961Z,6.35
2022-12-26T04:04:55.597Z,8.30
2022-12-26T04:08:03.920Z,10.82
2022-12-26T04:10:52.912Z,8.98
2022-12-26T04:13:47.610Z,7.68
2022-12-26T04:16:43.801Z,7.18
2022-12-26T04:19:32.215Z,7.40
2022-12-26T04:22:37.505Z,5.50
2022-12-26T04:25:48.553Z,3.90
2022-12-26T04:28:37.954Z,4.97
2022-12-26T04:34:28.099Z,5.20
2022-12-26T04:37:21.984Z,7.30
2022-12-26T04:40:10.106Z,5.75
2022-12-26T04:42:56.988Z,4.63
2022-12-26T04:45:24.175Z,5.50
2022-12-26T04:48:10.151Z,5.63
2022-12-26T04:50:37.289Z,6.60
2022-12-26T04:53:04.463Z,4.85
2022-12-26T04:55:33.381Z,5.85
2022-12-26T04:58:00.571Z,5.18
2022-12-26T05:00:28.663Z,4.07
2022-12-26T05:03:18.970Z,6.15
2022-12-26T05:06:14.026Z,7.10
2022-12-26T05:09:05.149Z,6.22
2022-12-26T05:11:34.568Z,5.97
2022-12-26T05:14:01.835Z,7.20
2022-12-26T05:16:47.883Z,4.60
2022-12-26T05:19:36.047Z,6.32
2022-12-26T05:22:23.152Z,6.45
2022-12-26T05:25:08.822Z,5.25
2022-12-26T05:27:58.211Z,6.82
2022-12-26T05:30:25.510Z,6.88
2022-12-26T05:33:11.235Z,7.47
2022-12-26T05:35:39.600Z,8.57
2022-12-26T05:38:06.641Z,8.13
2022-12-26T05:40:33.562Z,9.27
2022-12-26T05:43:00.583Z,9.27
2022-12-26T05:45:27.548Z,8.55
2022-12-26T05:48:01.798Z,6.82
2022-12-26T05:50:29.169Z,7.85
2022-12-26T05:52:59.912Z,9.20
2022-12-26T05:55:27.111Z,8.80
2022-12-26T05:57:53.994Z,7.63
2022-12-26T06:00:21.431Z,6.82
2022-12-26T06:02:48.725Z,8.32
2022-12-26T06:05:15.994Z,5.53
2022-12-26T06:07:42.958Z,7.43
2022-12-26T06:10:10.754Z,9.75
2022-12-26T06:12:38.948Z,8.48
2022-12-26T06:15:06.620Z,8.27
2022-12-26T06:17:33.585Z,6.35
2022-12-26T06:20:00.648Z,6.22
2022-12-26T06:22:29.912Z,8.73
2022-12-26T06:24:57.119Z,6.47
2022-12-26T06:27:24.128Z,8.98
2022-12-26T06:29:51.064Z,7.18
2022-12-26T06:32:18.003Z,9.77
2022-12-26T06:34:44.944Z,7.78
2022-12-26T06:37:11.832Z,7.25
2022-12-26T06:39:38.725Z,6.90
2022-12-26T06:42:05.723Z,7.80
2022-12-26T06:44:32.603Z,9.55
2022-12-26T06:46:59.596Z,9.88
2022-12-26T06:49:32.714Z,8.80
2022-12-26T06:52:00.437Z,9.05
2022-12-26T06:54:27.335Z,10.93
2022-12-26T06:56:54.402Z,7.60
2022-12-26T06:59:21.409Z,8.82
2022-12-26T07:01:48.445Z,8.60
2022-12-26T07:04:15.500Z,12.35
2022-12-26T07:06:42.713Z,9.40
2022-12-26T07:09:14.688Z,7.35
2022-12-26T07:11:44.506Z,7.57
2022-12-26T07:14:12.070Z,6.82
2022-12-26T07:16:41.180Z,8.38
2022-12-26T07:19:10.271Z,6.22
2022-12-26T07:21:40.844Z,6.65
2022-12-26T07:24:17.780Z,8.27
2022-12-26T07:26:46.410Z,5.57
2022-12-26T07:29:14.143Z,4.93
2022-12-26T07:31:41.773Z,5.55
2022-12-26T07:34:09.168Z,6.22
2022-12-26T07:36:36.126Z,5.97
2022-12-26T07:39:03.202Z,4.18
2022-12-26T07:41:48.731Z,5.90
2022-12-26T07:44:15.662Z,4.80
2022-12-26T07:46:43.539Z,5.22
2022-12-26T07:49:12.573Z,2.97
2022-12-26T07:51:39.792Z,4.00
2022-12-26T07:54:11.093Z,5.53
2022-12-26T07:56:38.243Z,8.18
2022-12-26T07:59:05.230Z,8.05
2022-12-26T08:01:32.457Z,9.82
2022-12-26T08:03:59.611Z,6.72
2022-12-26T08:06:26.552Z,9.65
2022-12-26T08:08:53.456Z,12.65
2022-12-26T08:11:24.470Z,11.82
2022-12-26T08:13:52.760Z,5.10
2022-12-26T08:16:20.875Z,5.72
2022-12-26T08:18:47.939Z,5.45
2022-12-26T08:21:14.923Z,5.32
2022-12-26T08:23:41.938Z,5.43
2022-12-26T08:26:11.726Z,4.10
2022-12-26T08:28:42.228Z,5.25
2022-12-26T08:31:10.625Z,2.17
2022-12-26T08:33:37.654Z,2.97
2022-12-26T08:36:07.234Z,3.38
2022-12-26T08:38:34.360Z,1.88
2022-12-26T08:41:01.782Z,6.32
2022-12-26T08:43:53.222Z,4.78
2022-12-26T08:46:16.268Z,2.22
2022-12-26T08:48:43.574Z,6.72
2022-12-26T08:51:16.114Z,3.17
2022-12-26T08:53:43.458Z,6.28
2022-12-26T08:56:16.668Z,10.32
2022-12-26T08:58:44.057Z,7.97
2022-12-26T09:01:16.866Z,4.82
2022-12-26T09:03:45.025Z,14.02
2022-12-26T09:06:13.771Z,13.93
2022-12-26T09:08:41.838Z,12.98
2022-12-26T09:11:16.075Z,18.95
2022-12-26T09:13:43.665Z,24.15
2022-12-26T09:16:16.379Z,39.15
2022-12-26T09:18:44.613Z,42.78
2022-12-26T09:21:13.382Z,45.90
2022-12-26T09:23:41.487Z,45.55
2022-12-26T09:26:11.695Z,48.67
2022-12-26T09:28:38.953Z,55.80
2022-12-26T09:31:08.379Z,44.65
2022-12-26T09:33:37.815Z,49.10
2022-12-26T09:36:14.472Z,33.05
2022-12-26T09:38:42.975Z,35.20
2022-12-26T09:41:15.449Z,29.40
2022-12-26T09:43:54.846Z,26.30
2022-12-26T10:17:39.728Z,9.10
2022-12-26T10:20:15.670Z,2.83
2022-12-26T10:22:57.784Z,3.25
2022-12-26T10:25:42.472Z,4.18
2022-12-26T10:28:28.592Z,4.97
2022-12-26T10:30:57.981Z,6.22
2022-12-26T10:33:49.367Z,8.07
2022-12-26T10:36:40.673Z,5.05
2022-12-26T10:39:22.537Z,3.72
2022-12-26T10:41:56.991Z,4.40
2022-12-26T10:44:27.896Z,6.63
2022-12-26T10:47:19.431Z,6.70
2022-12-26T10:49:47.900Z,7.47
2022-12-26T10:52:17.789Z,4.30
2022-12-26T10:54:51.252Z,5.43
2022-12-26T10:57:41.643Z,6.63
2022-12-26T11:00:25.461Z,4.97
2022-12-26T11:03:07.780Z,5.18
2022-12-26T11:06:07.067Z,7.38
2022-12-26T11:08:43.263Z,7.22
2022-12-26T11:11:21.171Z,5.07
2022-12-26T11:14:01.807Z,4.35
2022-12-26T11:16:34.112Z,7.63
2022-12-26T11:19:01.734Z,6.32
2022-12-26T11:21:31.012Z,5.75
2022-12-26T11:24:21.036Z,6.53
2022-12-26T11:26:48.691Z,6.82
2022-12-26T11:29:19.184Z,4.60
2022-12-26T11:31:59.471Z,6.53
2022-12-26T11:34:46.306Z,10.85
2022-12-26T11:37:23.887Z,5.97
2022-12-26T11:39:52.475Z,6.13
2022-12-26T11:42:23.836Z,5.47
2022-12-26T11:44:55.325Z,4.78
2022-12-26T11:47:29.886Z,7.18
2022-12-26T11:50:25.212Z,5.32
2022-12-26T11:52:56.686Z,5.50
2022-12-26T11:55:26.646Z,6.68
2022-12-26T11:57:58.857Z,8.52
2022-12-26T12:00:27.268Z,7.57
2022-12-26T12:02:54.979Z,6.85
2022-12-26T12:05:45.141Z,7.60
2022-12-26T12:08:20.905Z,6.05
2022-12-26T12:11:09.386Z,9.83
2022-12-26T12:13:51.293Z,6.32
2022-12-26T12:16:40.280Z,6.85
2022-12-26T12:19:23.304Z,6.63
2022-12-26T12:22:19.708Z,10.50
2022-12-26T12:24:55.680Z,10.18
2022-12-26T12:27:32.190Z,11.23
2022-12-26T12:30:11.030Z,11.70
2022-12-26T12:33:01.259Z,9.25
2022-12-26T12:35:36.846Z,4.43
2022-12-26T12:38:22.342Z,7.50
2022-12-26T12:41:11.037Z,5.55
2022-12-26T12:43:42.283Z,5.20
2022-12-26T12:46:15.585Z,7.60
2022-12-26T12:48:55.864Z,5.35
2022-12-26T12:51:50.463Z,8.73
2022-12-26T12:54:41.515Z,8.73
2022-12-26T12:57:17.439Z,6.57
2022-12-26T13:00:14.922Z,3.83
2022-12-26T13:02:55.759Z,5.60
2022-12-26T13:05:43.790Z,6.20
2022-12-26T13:11:16.778Z,4.90
2022-12-26T13:13:53.716Z,6.18
2022-12-26T13:16:29.006Z,8.80
2022-12-26T13:19:07.005Z,9.68
2022-12-26T13:21:37.532Z,8.35
2022-12-26T13:24:25.445Z,8.40
2022-12-26T13:27:08.072Z,6.80
2022-12-26T13:29:39.167Z,7.88
2022-12-26T13:32:31.403Z,9.43
2022-12-26T13:35:01.181Z,9.98
2022-12-26T13:37:40.289Z,7.03
2022-12-26T13:40:13.537Z,8.25
2022-12-26T13:43:08.660Z,7.30
2022-12-26T13:45:35.669Z,12.10
2022-12-26T13:48:18.007Z,13.02
2022-12-26T13:50:56.005Z,13.35
2022-12-26T13:53:26.542Z,7.90
2022-12-26T13:56:03.427Z,11.43
2022-12-26T13:58:48.807Z,15.85
2022-12-26T14:01:30.536Z,10.30
2022-12-26T14:04:34.584Z,14.13
2022-12-26T14:07:28.916Z,15.15
2022-12-26T14:10:09.936Z,12.55
2022-12-26T14:13:27.859Z,14.00
2022-12-26T14:16:05.804Z,11.13
2022-12-26T14:18:44.204Z,13.50
2022-12-26T14:21:29.478Z,14.60
2022-12-26T14:24:13.147Z,45.60
2022-12-26T14:26:55.754Z,57.47
2022-12-26T14:29:34.355Z,41.40
2022-12-26T14:32:21.504Z,27.30
2022-12-26T14:37:30.362Z,19.02
2022-12-26T14:39:57.305Z,13.63
2022-12-26T14:42:44.791Z,17.58
2022-12-26T14:45:31.825Z,13.48
2022-12-26T14:47:59.189Z,13.60
2022-12-26T14:50:42.383Z,19.17
2022-12-26T14:53:27.538Z,13.02
2022-12-26T14:56:14.098Z,13.00
2022-12-26T14:58:48.720Z,19.85
2022-12-26T15:01:15.980Z,16.75
2022-12-26T15:04:02.323Z,14.88
2022-12-26T15:06:39.534Z,17.47
2022-12-26T15:09:15.323Z,17.63
2022-12-26T15:12:32.818Z,18.13
2022-12-26T15:15:08.711Z,16.02
2022-12-26T15:17:41.662Z,17.90
2022-12-26T15:20:37.753Z,15.57
2022-12-26T15:23:38.464Z,15.60
2022-12-26T15:26:31.336Z,15.80
2022-12-26T15:29:16.221Z,16.23
2022-12-26T15:32:04.243Z,17.33
2022-12-26T15:34:58.728Z,17.90
2022-12-26T15:37:42.137Z,15.35
2022-12-26T15:40:16.223Z,20.88
2022-12-26T15:42:45.821Z,19.70
2022-12-26T15:45:37.120Z,16.67
2022-12-26T15:48:25.855Z,17.48
2022-12-26T15:51:31.273Z,17.70
2022-12-26T15:54:16.983Z,16.23
2022-12-26T15:56:56.479Z,17.85
2022-12-26T16:00:03.844Z,17.05
2022-12-26T16:03:13.769Z,15.80
2022-12-26T16:05:44.925Z,18.40
2022-12-26T16:08:54.441Z,20.08
2022-12-26T16:11:29.636Z,17.50
2022-12-26T16:14:02.691Z,19.25
2022-12-26T16:16:33.601Z,19.65
2022-12-26T16:19:22.949Z,20.75
2022-12-26T16:22:15.941Z,17.70
2022-12-26T16:24:44.284Z,17.95
2022-12-26T16:27:16.829Z,18.80
2022-12-26T16:29:51.613Z,18.08
2022-12-26T16:32:21.672Z,17.98
2022-12-26T16:34:49.688Z,23.42
2022-12-26T16:37:24.304Z,19.92
2022-12-26T16:40:06.681Z,20.52
2022-12-26T16:42:33.941Z,16.65
2022-12-26T16:45:01.859Z,18.13
2022-12-26T16:47:32.015Z,16.65
2022-12-26T16:50:00.091Z,21.02
2022-12-26T16:52:45.848Z,18.63
2022-12-26T16:55:22.959Z,14.85
2022-12-26T16:57:52.569Z,21.25
2022-12-26T17:00:21.881Z,21.58
2022-12-26T17:02:53.464Z,20.10
2022-12-26T17:05:26.907Z,21.58
2022-12-26T17:07:56.187Z,25.73
2022-12-26T17:10:27.943Z,21.15
2022-12-26T17:12:57.881Z,20.65
2022-12-26T17:15:30.002Z,19.45
2022-12-26T17:17:59.049Z,24.42
2022-12-26T17:20:26.150Z,20.65
2022-12-26T17:22:57.331Z,20.25
2022-12-26T17:25:29.681Z,16.73
2022-12-26T17:28:28.265Z,23.33
2022-12-26T17:30:55.389Z,20.15
2022-12-26T17:33:29.182Z,21.27
2022-12-26T17:38:48.855Z,21.33
2022-12-26T17:41:17.114Z,22.20
2022-12-26T17:43:45.547Z,23.08
2022-12-26T17:46:15.932Z,17.48
2022-12-26T17:48:43.758Z,19.33
2022-12-26T17:51:16.565Z,17.40
2022-12-26T17:53:48.645Z,18.35
2022-12-26T17:56:20.273Z,18.80
2022-12-26T17:58:48.279Z,19.33
2022-12-26T18:01:20.725Z,20.58
2022-12-26T18:03:48.749Z,21.13
2022-12-26T18:06:17.342Z,21.38
2022-12-26T18:08:45.146Z,20.08
2022-12-26T18:11:14.443Z,20.92
2022-12-26T18:13:42.385Z,23.08
2022-12-26T18:16:16.728Z,19.90
2022-12-26T18:18:45.090Z,22.75
2022-12-26T18:21:14.479Z,20.92
2022-12-26T18:23:42.004Z,20.15
2022-12-26T18:26:25.187Z,20.17
2022-12-26T18:28:52.747Z,19.92
2022-12-26T18:31:20.425Z,20.73
2022-12-26T18:33:47.443Z,17.95
2022-12-26T18:36:16.132Z,22.17
2022-12-26T18:38:43.489Z,21.33
2022-12-26T18:41:15.437Z,21.58
2022-12-26T18:43:42.587Z,20.35
2022-12-26T18:46:30.286Z,16.15
2022-12-26T18:48:57.655Z,21.13
2022-12-26T18:51:26.123Z,20.45
2022-12-26T18:53:53.297Z,26.50
2022-12-26T18:56:22.246Z,25.95
2022-12-26T18:58:57.422Z,23.15
2022-12-26T19:01:25.783Z,19.03
2022-12-26T19:03:53.971Z,23.65
2022-12-26T19:06:27.049Z,25.77
2022-12-26T19:08:54.000Z,32.38
2022-12-26T19:11:21.622Z,29.88
2022-12-26T19:13:48.934Z,31.83
2022-12-26T19:16:16.103Z,28.17
2022-12-26T19:18:43.123Z,23.60
2022-12-26T19:21:14.127Z,17.13
2022-12-26T19:23:42.063Z,19.15
2022-12-26T19:26:14.366Z,16.48
2022-12-26T19:28:41.421Z,17.75
2022-12-26T19:31:14.053Z,17.30
2022-12-26T19:33:41.191Z,15.73
2022-12-26T19:36:09.738Z,21.80
2022-12-26T19:38:37.285Z,18.35
2022-12-26T19:41:10.719Z,19.70
2022-12-26T19:43:38.458Z,14.15
2022-12-26T19:46:08.370Z,17.30
2022-12-26T19:48:36.872Z,16.25
2022-12-26T19:51:06.610Z,16.70
2022-12-26T19:53:34.641Z,20.52
2022-12-26T19:56:07.903Z,12.77
2022-12-26T19:58:34.800Z,14.52
2022-12-26T20:01:09.302Z,20.63
2022-12-26T20:03:37.110Z,18.75
2022-12-26T20:06:16.613Z,14.93
2022-12-26T20:08:45.216Z,14.32
2022-12-26T20:11:15.703Z,15.77
2022-12-26T20:13:44.354Z,12.13
2022-12-26T20:16:37.414Z,16.50
2022-12-26T20:19:01.664Z,15.52
2022-12-26T20:21:28.606Z,14.20
2022-12-26T20:24:01.353Z,12.82
2022-12-26T20:26:29.091Z,13.15
2022-12-26T20:28:58.517Z,12.23
2022-12-26T20:31:25.486Z,17.52
2022-12-26T20:33:52.863Z,14.90
2022-12-26T20:36:23.281Z,14.15
2022-12-26T20:38:58.660Z,18.40
2022-12-26T20:41:26.975Z,17.80
2022-12-26T20:43:54.205Z,16.23
2022-12-26T20:46:23.671Z,15.20
2022-12-26T20:48:51.132Z,14.25
2022-12-26T20:51:21.460Z,14.07
2022-12-26T20:53:48.326Z,13.05
2022-12-26T20:56:15.478Z,14.73
2022-12-26T20:58:42.648Z,12.05
2022-12-26T21:01:21.386Z,11.40
2022-12-26T21:03:51.724Z,10.10
2022-12-26T21:06:22.584Z,16.17
2022-12-26T21:08:51.263Z,10.45
2022-12-26T21:11:27.324Z,11.73
2022-12-26T21:13:59.869Z,9.18
2022-12-26T21:16:30.674Z,11.15
2022-12-26T21:18:58.231Z,9.00
2022-12-26T21:21:37.489Z,7.10
2022-12-26T21:24:07.495Z,11.38
2022-12-26T21:26:40.041Z,9.82
2022-12-26T21:29:09.311Z,11.75
2022-12-26T21:31:37.883Z,8.73
2022-12-26T21:34:05.333Z,12.63
2022-12-26T21:36:33.953Z,12.05
2022-12-26T21:39:05.876Z,12.45
2022-12-26T21:41:32.891Z,14.35
2022-12-26T21:43:59.865Z,15.23
2022-12-26T21:46:27.114Z,14.50
2022-12-26T21:48:55.489Z,16.17
2022-12-26T21:51:28.954Z,19.13
2022-12-26T21:54:15.793Z,17.63
2022-12-26T21:56:42.955Z,19.38
2022-12-26T21:59:28.430Z,23.42
2022-12-26T22:01:55.645Z,22.75
2022-12-26T22:04:23.912Z,21.08
2022-12-26T22:06:52.638Z,21.05
2022-12-26T22:09:19.746Z,18.63
2022-12-26T22:12:05.699Z,21.25
2022-12-26T22:14:32.699Z,19.48
2022-12-26T22:16:59.656Z,17.98
2022-12-26T22:19:26.594Z,19.67
2022-12-26T22:21:54.980Z,18.15
2022-12-26T22:24:22.594Z,18.42
2022-12-26T22:26:49.651Z,19.30
2022-12-26T22:29:17.098Z,17.15
2022-12-26T22:31:44.056Z,18.27
2022-12-26T22:34:13.968Z,17.10
2022-12-26T22:36:42.025Z,16.15
2022-12-26T22:39:13.335Z,15.43
2022-12-26T22:41:40.296Z,15.07
2022-12-26T22:44:12.485Z,9.48
2022-12-26T22:46:39.712Z,12.85
2022-12-26T22:49:06.727Z,13.93
2022-12-26T22:51:33.684Z,10.15
2022-12-26T22:54:01.894Z,9.52
2022-12-26T22:56:29.646Z,8.02
2022-12-26T22:59:03.110Z,7.45
2022-12-26T23:01:30.425Z,9.95
2022-12-26T23:03:57.854Z,11.40
2022-12-26T23:06:31.009Z,12.48
2022-12-26T23:09:01.296Z,11.95
2022-12-26T23:11:34.700Z,10.82
2022-12-26T23:14:05.067Z,11.25
2022-12-26T23:16:58.563Z,12.02
2022-12-26T23:20:07.159Z,16.55
2022-12-26T23:22:34.434Z,17.10
2022-12-26T23:25:01.305Z,15.98
2022-12-26T23:27:47.157Z,11.77
2022-12-26T23:30:20.279Z,12.00
2022-12-26T23:32:50.940Z,16.55
2022-12-26T23:35:19.647Z,18.33
2022-12-26T23:37:46.846Z,17.67
2022-12-26T23:40:18.017Z,16.27
2022-12-26T23:42:45.554Z,19.83
2022-12-26T23:45:14.177Z,18.83
2022-12-26T23:47:44.349Z,11.65
2022-12-26T23:50:13.104Z,8.57
2022-12-26T23:52:40.706Z,7.22
2022-12-26T23:55:08.078Z,11.77
2022-12-26T23:57:34.979Z,8.07
